createdAt,value
2023-02-04T00:00:22.122Z,16.90
2023-02-04T00:02:49.288Z,15.90
2023-02-04T00:05:16.654Z,12.60
2023-02-04T00:07:44.421Z,14.00
2023-02-04T00:10:13.287Z,12.30
2023-02-04T00:12:40.422Z,12.00
2023-02-04T00:15:07.714Z,12.20
2023-02-04T00:17:35.112Z,12.50
2023-02-04T00:20:01.748Z,10.20
2023-02-04T00:22:28.778Z,10.60
2023-02-04T00:24:55.590Z,8.20
2023-02-04T00:27:22.691Z,9.90
2023-02-04T00:29:49.897Z,8.80
2023-02-04T00:32:16.654Z,9.50
2023-02-04T00:34:43.945Z,10.80
2023-02-04T00:37:10.654Z,9.10
2023-02-04T00:39:38.110Z,8.30
2023-02-04T00:42:06.260Z,8.60
2023-02-04T00:44:35.854Z,8.00
2023-02-04T00:47:02.770Z,7.80
2023-02-04T00:49:30.155Z,6.90
2023-02-04T00:51:56.813Z,6.90
2023-02-04T00:54:23.693Z,7.60
2023-02-04T00:56:51.036Z,7.20
2023-02-04T00:59:17.729Z,7.10
2023-02-04T01:01:44.460Z,6.30
2023-02-04T01:04:11.875Z,8.80
2023-02-04T01:06:38.827Z,8.60
2023-02-04T01:09:06.336Z,7.70
2023-02-04T01:11:33.132Z,7.40
2023-02-04T01:14:00.285Z,9.60
2023-02-04T01:16:27.244Z,7.30
2023-02-04T01:18:55.336Z,7.50
2023-02-04T01:21:23.242Z,9.40
2023-02-04T01:23:51.083Z,8.20
2023-02-04T01:26:18.534Z,7.80
2023-02-04T01:28:45.748Z,6.20
2023-02-04T01:31:12.767Z,7.80
2023-02-04T01:33:40.091Z,7.20
2023-02-04T01:36:07.146Z,7.60
2023-02-04T01:38:33.948Z,7.30
2023-02-04T01:41:00.658Z,8.40
2023-02-04T01:43:27.633Z,8.70
2023-02-04T01:45:56.549Z,9.10
2023-02-04T01:48:23.305Z,10.00
2023-02-04T01:50:51.782Z,8.80
2023-02-04T01:53:21.944Z,10.80
2023-02-04T01:55:49.987Z,11.40
2023-02-04T01:58:16.792Z,10.90
2023-02-04T02:00:43.946Z,12.10
2023-02-04T02:03:11.472Z,11.90
2023-02-04T02:05:48.290Z,11.40
2023-02-04T02:08:15.025Z,12.60
2023-02-04T02:10:44.925Z,12.30
2023-02-04T02:13:15.353Z,13.40
2023-02-04T02:15:42.091Z,14.20
2023-02-04T02:18:08.783Z,10.90
2023-02-04T02:20:36.104Z,12.00
2023-02-04T02:23:27.105Z,10.00
2023-02-04T02:25:53.921Z,10.10
2023-02-04T02:28:21.543Z,9.70
2023-02-04T02:30:49.153Z,9.00
2023-02-04T02:33:17.959Z,9.40
2023-02-04T02:35:47.653Z,9.50
2023-02-04T02:38:18.441Z,8.30
2023-02-04T02:40:46.625Z,8.20
2023-02-04T02:43:15.088Z,8.00
2023-02-04T02:45:42.163Z,9.30
2023-02-04T02:48:10.615Z,8.70
2023-02-04T02:50:37.342Z,9.80
2023-02-04T02:53:09.231Z,10.80
2023-02-04T02:55:36.003Z,10.40
2023-02-04T02:58:03.542Z,10.70
2023-02-04T03:00:30.698Z,11.00
2023-02-04T03:03:00.505Z,11.10
2023-02-04T03:05:29.156Z,10.40
2023-02-04T03:07:57.885Z,9.60
2023-02-04T03:10:24.702Z,8.40
2023-02-04T03:12:51.484Z,8.00
2023-02-04T03:15:18.157Z,9.40
2023-02-04T03:17:45.649Z,9.40
2023-02-04T03:20:13.502Z,8.20
2023-02-04T03:22:40.492Z,7.60
2023-02-04T03:25:07.715Z,8.00
2023-02-04T03:27:34.823Z,8.30
2023-02-04T03:30:02.203Z,8.90
2023-02-04T03:32:29.097Z,6.80
2023-02-04T03:34:55.763Z,7.10
2023-02-04T03:37:22.344Z,7.50
2023-02-04T03:39:49.181Z,7.50
2023-02-04T03:42:17.092Z,8.20
2023-02-04T03:44:43.743Z,7.20
2023-02-04T03:47:10.308Z,8.20
2023-02-04T03:49:38.113Z,6.90
2023-02-04T03:52:04.944Z,6.70
2023-02-04T03:54:31.975Z,7.20
2023-02-04T03:56:59.131Z,7.10
2023-02-04T03:59:25.903Z,6.00
2023-02-04T04:01:53.536Z,7.00
2023-02-04T04:04:20.281Z,6.00
2023-02-04T04:06:46.907Z,6.50
2023-02-04T04:09:13.691Z,7.80
2023-02-04T04:11:40.603Z,8.10
2023-02-04T04:14:08.371Z,8.50
2023-02-04T04:16:35.819Z,6.70
2023-02-04T04:19:02.478Z,7.20
2023-02-04T04:21:29.309Z,6.90
2023-02-04T04:23:56.024Z,7.10
2023-02-04T04:26:22.825Z,6.60
2023-02-04T04:28:49.689Z,6.80
2023-02-04T04:31:16.674Z,6.10
2023-02-04T04:33:43.831Z,7.10
2023-02-04T04:36:10.788Z,6.20
2023-02-04T04:38:37.851Z,6.10
2023-02-04T04:41:04.560Z,5.80
2023-02-04T04:43:31.163Z,6.70
2023-02-04T04:45:57.796Z,8.50
2023-02-04T04:48:25.035Z,8.40
2023-02-04T04:50:52.219Z,8.80
2023-02-04T04:53:19.005Z,8.80
2023-02-04T04:55:45.930Z,8.80
2023-02-04T04:58:12.610Z,8.60
2023-02-04T05:00:40.894Z,9.90
2023-02-04T05:03:07.763Z,10.80
2023-02-04T05:05:39.202Z,10.40
2023-02-04T05:08:12.371Z,9.00
2023-02-04T05:10:43.721Z,8.30
2023-02-04T05:13:10.942Z,8.00
2023-02-04T05:15:38.107Z,8.40
2023-02-04T05:18:05.270Z,6.90
2023-02-04T05:20:32.724Z,7.50
2023-02-04T05:23:04.526Z,8.80
2023-02-04T05:25:32.179Z,6.90
2023-02-04T05:27:59.313Z,8.10
2023-02-04T05:30:26.099Z,9.90
2023-02-04T05:32:53.021Z,9.60
2023-02-04T05:35:19.843Z,11.70
2023-02-04T05:37:46.629Z,14.90
2023-02-04T05:40:13.357Z,14.50
2023-02-04T05:42:41.254Z,11.90
2023-02-04T05:45:13.852Z,11.00
2023-02-04T05:47:40.549Z,9.00
2023-02-04T05:50:07.859Z,9.00
2023-02-04T05:52:34.601Z,10.20
2023-02-04T05:55:01.349Z,11.10
2023-02-04T05:57:28.046Z,9.30
2023-02-04T05:59:54.859Z,9.60
2023-02-04T06:02:21.813Z,10.70
2023-02-04T06:04:48.562Z,9.30
2023-02-04T06:07:15.719Z,10.70
2023-02-04T06:09:42.328Z,10.70
2023-02-04T06:12:09.968Z,13.40
2023-02-04T06:14:36.721Z,15.50
2023-02-04T06:17:03.981Z,23.10
2023-02-04T06:19:31.528Z,23.40
2023-02-04T06:21:58.245Z,26.80
2023-02-04T06:24:24.908Z,25.20
2023-02-04T06:26:51.798Z,25.00
2023-02-04T06:29:18.483Z,32.00
2023-02-04T06:31:45.207Z,28.70
2023-02-04T06:34:12.036Z,30.20
2023-02-04T06:36:38.692Z,28.50
2023-02-04T06:39:05.660Z,27.30
2023-02-04T06:41:33.013Z,25.20
2023-02-04T06:43:59.692Z,20.90
2023-02-04T06:46:26.555Z,18.50
2023-02-04T06:48:53.255Z,14.60
2023-02-04T06:51:19.943Z,13.60
2023-02-04T06:53:47.179Z,17.70
2023-02-04T06:56:14.033Z,18.30
2023-02-04T06:58:40.866Z,18.20
2023-02-04T07:01:07.616Z,15.40
2023-02-04T07:03:35.126Z,20.60
2023-02-04T07:06:02.375Z,23.00
2023-02-04T07:08:29.118Z,21.70
2023-02-04T07:10:57.414Z,11.60
2023-02-04T07:13:24.216Z,14.20
2023-02-04T07:15:53.130Z,9.70
2023-02-04T07:18:20.763Z,13.50
2023-02-04T07:20:48.165Z,12.60
2023-02-04T07:23:14.894Z,13.70
2023-02-04T07:25:43.534Z,29.50
2023-02-04T07:28:10.836Z,31.40
2023-02-04T07:30:37.759Z,24.10
2023-02-04T07:33:04.901Z,23.00
2023-02-04T07:35:31.528Z,29.60
2023-02-04T07:37:58.149Z,12.90
2023-02-04T07:40:24.986Z,10.60
2023-02-04T07:42:51.638Z,26.60
2023-02-04T07:45:18.831Z,15.40
2023-02-04T07:47:46.270Z,10.90
2023-02-04T07:50:13.001Z,8.70
2023-02-04T07:52:40.441Z,14.80
2023-02-04T07:55:07.915Z,9.10
2023-02-04T07:57:35.064Z,7.50
2023-02-04T08:00:01.714Z,7.00
2023-02-04T08:02:28.929Z,7.10
2023-02-04T08:04:55.693Z,8.20
2023-02-04T08:07:22.326Z,8.70
2023-02-04T08:09:48.937Z,8.60
2023-02-04T08:12:16.309Z,7.90
2023-02-04T08:14:42.910Z,8.70
2023-02-04T08:17:09.882Z,9.60
2023-02-04T08:19:36.530Z,8.40
2023-02-04T08:22:03.478Z,8.30
2023-02-04T08:24:30.263Z,7.60
2023-02-04T08:32:58.014Z,7.40
2023-02-04T08:35:26.275Z,8.20
2023-02-04T08:37:54.610Z,7.70
2023-02-04T08:40:23.260Z,8.70
2023-02-04T08:42:51.363Z,9.10
2023-02-04T08:45:19.587Z,14.70
2023-02-04T08:47:48.001Z,16.60
2023-02-04T08:50:16.281Z,31.80
2023-02-04T08:52:44.700Z,25.40
2023-02-04T08:55:13.192Z,15.60
2023-02-04T08:57:41.723Z,11.30
2023-02-04T09:00:11.978Z,13.10
2023-02-04T09:02:40.486Z,10.20
2023-02-04T09:05:08.952Z,10.20
2023-02-04T09:07:37.409Z,10.30
2023-02-04T09:10:06.205Z,9.70
2023-02-04T09:12:34.450Z,10.90
2023-02-04T09:15:02.680Z,11.70
2023-02-04T09:17:33.978Z,8.90
2023-02-04T09:20:02.713Z,11.40
2023-02-04T09:22:30.986Z,9.90
2023-02-04T09:24:58.934Z,9.60
2023-02-04T09:27:27.220Z,10.70
2023-02-04T09:29:55.213Z,9.90
2023-02-04T09:32:23.923Z,9.90
2023-02-04T09:34:52.377Z,8.90
2023-02-04T09:37:20.314Z,10.40
2023-02-04T09:39:48.538Z,9.40
2023-02-04T09:42:16.655Z,10.30
2023-02-04T09:44:45.625Z,12.00
2023-02-04T09:47:15.678Z,10.30
2023-02-04T09:49:46.991Z,9.10
2023-02-04T09:52:16.097Z,11.20
2023-02-04T09:54:45.166Z,11.10
2023-02-04T09:57:20.097Z,10.50
2023-02-04T09:59:48.360Z,11.80
2023-02-04T10:02:24.663Z,12.20
2023-02-04T10:04:57.629Z,13.10
2023-02-04T10:07:27.541Z,10.70
2023-02-04T10:09:55.868Z,12.00
2023-02-04T10:12:24.403Z,12.30
2023-02-04T10:14:52.369Z,12.90
2023-02-04T10:17:22.534Z,13.20
2023-02-04T10:19:50.462Z,13.30
2023-02-04T10:22:20.287Z,11.80
2023-02-04T10:24:48.518Z,16.40
2023-02-04T10:27:17.125Z,12.70
2023-02-04T10:29:58.498Z,11.10
2023-02-04T10:32:31.839Z,10.60
2023-02-04T10:35:01.743Z,11.10
2023-02-04T10:37:30.878Z,11.30
2023-02-04T10:39:59.194Z,9.50
2023-02-04T10:42:29.016Z,9.60
2023-02-04T10:44:57.201Z,8.80
2023-02-04T10:47:29.017Z,7.90
2023-02-04T10:50:16.751Z,7.30
2023-02-04T10:52:47.243Z,7.40
2023-02-04T10:55:18.359Z,7.90
2023-02-04T10:57:47.902Z,8.00
2023-02-04T11:00:23.652Z,7.10
2023-02-04T11:03:08.188Z,7.20
2023-02-04T11:05:37.091Z,7.20
2023-02-04T11:08:27.487Z,7.10
2023-02-04T11:10:58.190Z,6.40
2023-02-04T11:13:28.338Z,5.70
2023-02-04T11:16:17.534Z,6.20
2023-02-04T11:18:46.581Z,6.00
2023-02-04T11:21:27.800Z,6.00
2023-02-04T11:24:11.228Z,6.50
2023-02-04T11:26:40.332Z,6.60
2023-02-04T11:29:15.664Z,7.40
2023-02-04T11:31:46.775Z,7.80
2023-02-04T11:34:14.941Z,7.10
2023-02-04T11:36:58.683Z,6.10
2023-02-04T11:42:02.603Z,7.00
2023-02-04T11:44:31.470Z,7.10
2023-02-04T11:46:59.595Z,7.10
2023-02-04T11:49:27.878Z,8.20
2023-02-04T11:52:09.003Z,9.10
2023-02-04T11:54:37.774Z,8.00
2023-02-04T11:57:06.012Z,8.60
2023-02-04T11:59:36.410Z,8.70
2023-02-04T12:02:15.766Z,9.40
2023-02-04T12:04:54.295Z,10.80
2023-02-04T12:07:25.397Z,11.20
2023-02-04T12:09:53.573Z,10.80
2023-02-04T12:12:31.669Z,11.00
2023-02-04T12:15:09.714Z,9.10
2023-02-04T12:17:37.818Z,11.00
2023-02-04T12:20:06.275Z,8.80
2023-02-04T12:22:34.494Z,7.20
2023-02-04T12:25:02.436Z,8.40
2023-02-04T12:27:30.579Z,7.30
2023-02-04T12:29:58.768Z,8.60
2023-02-04T12:32:26.785Z,7.00
2023-02-04T12:34:58.955Z,7.00
2023-02-04T12:37:27.272Z,7.20
2023-02-04T12:39:55.355Z,8.40
2023-02-04T12:42:23.491Z,9.00
2023-02-04T12:44:51.470Z,7.50
2023-02-04T12:47:19.559Z,6.40
2023-02-04T12:49:48.514Z,6.80
2023-02-04T12:52:16.460Z,8.60
2023-02-04T12:54:44.620Z,7.70
2023-02-04T12:57:14.662Z,8.40
2023-02-04T12:59:42.721Z,7.30
2023-02-04T13:02:11.257Z,7.20
2023-02-04T13:04:40.575Z,6.90
2023-02-04T13:07:09.375Z,7.10
2023-02-04T13:09:37.472Z,6.60
2023-02-04T13:12:06.007Z,6.30
2023-02-04T13:14:34.636Z,7.00
2023-02-04T13:17:02.593Z,6.50
2023-02-04T13:19:31.116Z,7.00
2023-02-04T13:21:59.855Z,6.80
2023-02-04T13:24:28.345Z,7.90
2023-02-04T13:26:56.595Z,7.60
2023-02-04T13:29:24.666Z,8.70
2023-02-04T13:31:52.981Z,8.30
2023-02-04T13:34:21.221Z,8.10
2023-02-04T13:36:49.271Z,8.30
2023-02-04T13:39:17.381Z,7.70
2023-02-04T13:41:46.296Z,8.00
2023-02-04T13:44:14.355Z,9.40
2023-02-04T13:46:42.455Z,8.80
2023-02-04T13:49:10.603Z,8.50
2023-02-04T13:51:39.184Z,8.40
2023-02-04T13:54:07.331Z,8.40
2023-02-04T13:56:36.694Z,7.50
2023-02-04T13:59:04.772Z,8.90
2023-02-04T14:01:33.138Z,8.30
2023-02-04T14:04:01.161Z,9.60
2023-02-04T14:06:34.448Z,8.50
2023-02-04T14:09:02.658Z,6.70
2023-02-04T14:11:30.759Z,8.50
2023-02-04T14:13:59.149Z,11.50
2023-02-04T14:16:27.511Z,10.20
2023-02-04T14:18:55.674Z,10.10
2023-02-04T14:21:23.718Z,9.90
2023-02-04T14:23:52.034Z,9.30
2023-02-04T14:26:20.573Z,8.90
2023-02-04T14:28:48.605Z,8.70
2023-02-04T14:31:16.903Z,9.60
2023-02-04T14:33:45.672Z,9.60
2023-02-04T14:36:14.193Z,9.80
2023-02-04T14:38:42.721Z,9.40
2023-02-04T14:41:16.378Z,10.20
2023-02-04T14:43:45.026Z,12.30
2023-02-04T14:46:13.652Z,11.70
2023-02-04T14:48:42.152Z,12.90
2023-02-04T14:51:10.391Z,10.70
2023-02-04T14:53:40.939Z,12.20
2023-02-04T14:56:10.704Z,12.60
2023-02-04T14:58:38.662Z,10.50
2023-02-04T15:01:06.965Z,11.00
2023-02-04T15:03:35.042Z,10.50
2023-02-04T15:06:03.293Z,10.50
2023-02-04T15:08:33.021Z,12.60
2023-02-04T15:11:01.932Z,11.80
2023-02-04T15:13:30.350Z,11.20
2023-02-04T15:15:58.655Z,11.60
2023-02-04T15:18:27.224Z,11.40
2023-02-04T15:20:58.151Z,14.20
2023-02-04T15:23:26.177Z,11.70
2023-02-04T15:25:57.525Z,13.80
2023-02-04T15:28:27.864Z,14.10
2023-02-04T15:30:57.136Z,12.30
2023-02-04T15:33:25.600Z,12.30
2023-02-04T15:35:55.711Z,10.50
2023-02-04T15:38:24.209Z,10.60
2023-02-04T15:40:52.253Z,8.80
2023-02-04T15:43:20.257Z,8.60
2023-02-04T15:45:48.788Z,8.80
2023-02-04T15:48:17.547Z,8.10
2023-02-04T15:50:46.158Z,9.00
2023-02-04T15:53:14.525Z,8.10
2023-02-04T15:55:42.742Z,8.30
2023-02-04T15:58:10.915Z,8.50
2023-02-04T16:00:39.896Z,8.70
2023-02-04T16:03:08.038Z,9.10
2023-02-04T16:05:36.368Z,10.40
2023-02-04T16:08:04.736Z,8.90
2023-02-04T16:10:33.186Z,8.90
2023-02-04T16:13:01.611Z,9.90
2023-02-04T16:15:30.005Z,9.30
2023-02-04T16:18:00.616Z,10.00
2023-02-04T16:20:28.989Z,8.00
2023-02-04T16:22:57.805Z,7.70
2023-02-04T16:25:26.548Z,7.60
2023-02-04T16:27:55.680Z,7.20
2023-02-04T16:30:24.246Z,6.70
2023-02-04T16:32:52.396Z,7.90
2023-02-04T16:35:21.510Z,6.20
2023-02-04T16:37:49.644Z,7.20
2023-02-04T16:40:18.512Z,6.10
2023-02-04T16:42:46.606Z,8.00
2023-02-04T16:45:15.154Z,6.20
2023-02-04T16:47:43.259Z,7.00
2023-02-04T16:50:13.139Z,6.60
2023-02-04T16:52:41.381Z,10.70
2023-02-04T16:55:09.629Z,7.40
2023-02-04T16:57:38.179Z,8.00
2023-02-04T17:00:07.689Z,7.50
2023-02-04T17:02:37.509Z,10.30
2023-02-04T17:05:06.186Z,9.50
2023-02-04T17:07:34.461Z,9.80
2023-02-04T17:10:02.793Z,9.40
2023-02-04T17:12:34.521Z,9.10
2023-02-04T17:15:05.004Z,8.10
2023-02-04T17:17:33.521Z,7.50
2023-02-04T17:20:01.861Z,7.00
2023-02-04T17:22:30.634Z,8.00
2023-02-04T17:24:58.843Z,7.50
2023-02-04T17:27:26.940Z,8.50
2023-02-04T17:29:54.988Z,7.20
2023-02-04T17:32:23.073Z,7.50
2023-02-04T17:34:54.927Z,7.40
2023-02-04T17:37:23.050Z,7.90
2023-02-04T17:39:51.261Z,7.00
2023-02-04T17:42:19.361Z,6.80
2023-02-04T17:44:47.538Z,8.60
2023-02-04T17:47:16.439Z,6.90
2023-02-04T17:49:44.771Z,8.60
2023-02-04T17:52:13.257Z,7.50
2023-02-04T17:54:41.869Z,6.30
2023-02-04T17:57:18.146Z,7.50
2023-02-04T17:59:47.037Z,6.70
2023-02-04T18:02:30.760Z,6.50
2023-02-04T18:05:12.515Z,6.50
2023-02-04T18:07:52.523Z,7.00
2023-02-04T18:10:25.635Z,6.60
2023-02-04T18:12:54.162Z,6.40
2023-02-04T18:15:27.647Z,6.00
2023-02-04T18:18:02.689Z,6.40
2023-02-04T18:20:31.775Z,8.30
2023-02-04T18:23:02.986Z,6.90
2023-02-04T18:25:32.211Z,10.10
2023-02-04T18:28:01.192Z,7.70
2023-02-04T18:30:29.634Z,7.60
2023-02-04T18:32:57.742Z,8.10
2023-02-04T18:35:36.328Z,9.90
2023-02-04T18:38:21.085Z,7.10
2023-02-04T18:40:50.667Z,7.30
2023-02-04T18:43:21.787Z,7.50
2023-02-04T18:45:49.957Z,7.80
2023-02-04T18:48:18.262Z,8.20
2023-02-04T18:50:54.205Z,7.80
2023-02-04T18:53:26.866Z,9.20
2023-02-04T18:55:58.167Z,9.00
2023-02-04T18:58:36.577Z,12.50
2023-02-04T19:01:21.539Z,7.70
2023-02-04T19:03:59.872Z,8.70
2023-02-04T19:06:37.169Z,7.70
2023-02-04T19:09:17.850Z,26.60
2023-02-04T19:11:48.039Z,22.80
2023-02-04T19:14:23.438Z,14.70
2023-02-04T19:16:55.005Z,11.30
2023-02-04T19:19:43.644Z,8.20
2023-02-04T19:22:20.708Z,6.50
2023-02-04T19:24:50.520Z,5.80
2023-02-04T19:27:28.042Z,5.80
2023-02-04T19:29:57.781Z,6.00
2023-02-04T19:32:37.931Z,5.60
2023-02-04T19:35:20.234Z,4.60
2023-02-04T19:38:02.630Z,4.60
2023-02-04T19:40:33.889Z,4.90
2023-02-04T19:43:08.289Z,5.00
2023-02-04T19:45:37.394Z,5.20
2023-02-04T19:48:15.220Z,5.00
2023-02-04T19:50:45.309Z,4.30
2023-02-04T19:53:18.573Z,5.00
2023-02-04T19:55:51.341Z,4.10
2023-02-04T19:58:23.213Z,4.20
2023-02-04T20:00:59.068Z,6.00
2023-02-04T20:03:46.389Z,5.90
2023-02-04T20:06:27.500Z,4.50
2023-02-04T20:09:18.266Z,4.90
2023-02-04T20:11:52.362Z,5.60
2023-02-04T20:14:27.313Z,4.40
2023-02-04T20:17:03.596Z,4.40
2023-02-04T20:19:35.209Z,4.80
2023-02-04T20:22:19.023Z,5.20
2023-02-04T20:25:27.414Z,4.70
2023-02-04T20:27:57.788Z,4.80
2023-02-04T20:30:27.713Z,5.20
2023-02-04T20:32:57.781Z,4.80
2023-02-04T20:35:28.928Z,5.30
2023-02-04T20:37:58.461Z,5.60
2023-02-04T20:40:33.333Z,5.20
2023-02-04T20:43:20.204Z,5.10
2023-02-04T20:46:01.970Z,4.60
2023-02-04T20:48:35.448Z,5.20
2023-02-04T20:51:04.988Z,5.00
2023-02-04T20:53:58.284Z,4.30
2023-02-04T20:56:40.832Z,4.60
2023-02-04T20:59:12.087Z,3.70
2023-02-04T21:01:41.105Z,4.70
2023-02-04T21:04:15.878Z,6.40
2023-02-04T21:06:45.061Z,4.80
2023-02-04T21:09:24.668Z,5.00
2023-02-04T21:11:54.316Z,5.10
2023-02-04T21:14:22.948Z,4.30
2023-02-04T21:16:51.250Z,4.50
2023-02-04T21:19:22.461Z,5.00
2023-02-04T21:21:50.889Z,4.40
2023-02-04T21:24:19.790Z,5.10
2023-02-04T21:26:47.954Z,4.60
2023-02-04T21:29:16.490Z,4.40
2023-02-04T21:31:46.552Z,4.70
2023-02-04T21:34:15.920Z,4.20
2023-02-04T21:36:44.037Z,4.00
2023-02-04T21:39:12.312Z,5.10
2023-02-04T21:41:40.735Z,5.00
2023-02-04T21:44:08.757Z,4.40
2023-02-04T21:46:38.274Z,4.00
2023-02-04T21:49:06.380Z,4.10
2023-02-04T21:51:34.912Z,4.80
2023-02-04T21:54:05.290Z,3.90
2023-02-04T21:56:34.718Z,3.80
2023-02-04T21:59:04.749Z,3.80
2023-02-04T22:01:33.248Z,4.50
2023-02-04T22:04:01.608Z,4.20
2023-02-04T22:06:30.028Z,3.90
2023-02-04T22:08:58.300Z,4.10
2023-02-04T22:11:26.324Z,4.40
2023-02-04T22:13:54.329Z,6.00
2023-02-04T22:16:22.970Z,4.70
2023-02-04T22:18:51.407Z,4.00
2023-02-04T22:21:19.889Z,5.30
2023-02-04T22:23:47.932Z,5.30
2023-02-04T22:26:16.403Z,5.20
2023-02-04T22:28:44.443Z,4.00
2023-02-04T22:31:15.387Z,4.30
2023-02-04T22:33:44.114Z,3.60
2023-02-04T22:36:12.474Z,5.80
2023-02-04T22:38:40.847Z,4.50
2023-02-04T22:41:09.838Z,4.50
2023-02-04T22:43:38.342Z,4.80
2023-02-04T22:46:06.300Z,4.30
2023-02-04T22:48:35.636Z,5.00
2023-02-04T22:51:03.920Z,3.60
2023-02-04T22:53:32.166Z,4.20
2023-02-04T22:56:00.971Z,4.50
2023-02-04T22:58:29.204Z,5.20
2023-02-04T23:00:57.793Z,4.20
2023-02-04T23:03:25.830Z,4.70
2023-02-04T23:05:55.077Z,4.20
2023-02-04T23:08:23.110Z,5.00
2023-02-04T23:10:51.158Z,4.80
2023-02-04T23:13:28.320Z,3.60
2023-02-04T23:15:57.463Z,4.60
2023-02-04T23:25:21.019Z,4.80
2023-02-04T23:27:47.856Z,4.00
2023-02-04T23:30:14.972Z,3.70
2023-02-04T23:32:42.248Z,4.30
2023-02-04T23:35:08.866Z,4.80
2023-02-04T23:37:35.836Z,4.10
2023-02-04T23:40:03.279Z,4.90
2023-02-04T23:42:30.856Z,4.50
2023-02-04T23:44:57.943Z,4.60
2023-02-04T23:47:25.249Z,4.20
2023-02-04T23:49:51.981Z,4.20
2023-02-04T23:52:18.785Z,5.10
2023-02-04T23:54:45.592Z,4.60
2023-02-04T23:57:13.036Z,4.40
2023-02-04T23:59:41.611Z,4.20
